createdAt,value
2023-03-04T00:03:51.051Z,2.38
2023-03-04T00:08:52.483Z,2.03
2023-03-04T00:13:53.890Z,1.75
2023-03-04T00:18:56.015Z,2.70
2023-03-04T00:23:57.491Z,1.80
2023-03-04T00:28:58.981Z,1.55
2023-03-04T00:34:00.504Z,2.10
2023-03-04T00:39:02.000Z,1.83
2023-03-04T00:44:03.478Z,1.90
2023-03-04T00:49:04.960Z,1.60
2023-03-04T00:54:06.380Z,2.97
2023-03-04T00:59:07.772Z,2.50
2023-03-04T01:04:09.165Z,2.00
2023-03-04T01:09:10.597Z,2.05
2023-03-04T01:14:12.258Z,1.73
2023-03-04T01:19:13.658Z,1.40
2023-03-04T01:24:15.103Z,1.65
2023-03-04T01:29:16.604Z,1.85
2023-03-04T01:34:18.160Z,2.05
2023-03-04T01:39:19.551Z,1.80
2023-03-04T01:44:21.024Z,1.95
2023-03-04T01:49:22.856Z,1.42
2023-03-04T01:54:24.290Z,1.45
2023-03-04T01:59:26.825Z,1.50
2023-03-04T02:04:29.082Z,2.08
2023-03-04T02:09:30.925Z,2.20
2023-03-04T02:14:32.521Z,1.33
2023-03-04T02:20:00.261Z,1.33
2023-03-04T02:25:05.413Z,1.40
2023-03-04T02:30:07.203Z,1.48
2023-03-04T02:35:13.886Z,2.10
2023-03-04T02:40:17.270Z,1.75
2023-03-04T02:45:35.218Z,1.42
2023-03-04T02:50:39.502Z,1.52
2023-03-04T02:55:42.684Z,2.53
2023-03-04T03:00:44.177Z,1.65
2023-03-04T03:05:45.715Z,2.75
2023-03-04T03:10:47.111Z,1.30
2023-03-04T03:15:50.117Z,2.38
2023-03-04T03:20:51.758Z,1.88
2023-03-04T03:25:53.185Z,2.28
2023-03-04T03:30:55.060Z,1.50
2023-03-04T03:35:57.836Z,1.50
2023-03-04T03:40:59.267Z,1.58
2023-03-04T03:46:00.700Z,2.22
2023-03-04T03:51:02.140Z,1.55
2023-03-04T03:56:05.037Z,1.48
2023-03-04T04:01:06.543Z,1.60
2023-03-04T04:06:07.974Z,1.75
2023-03-04T04:11:12.848Z,1.70
2023-03-04T04:16:14.300Z,1.13
2023-03-04T04:21:15.846Z,1.48
2023-03-04T04:26:17.271Z,1.35
2023-03-04T04:31:18.646Z,1.40
2023-03-04T04:36:21.187Z,1.55
2023-03-04T04:41:24.400Z,1.40
2023-03-04T04:46:26.501Z,1.50
2023-03-04T04:51:28.161Z,1.30
2023-03-04T04:56:29.898Z,1.75
2023-03-04T05:01:31.764Z,1.55
2023-03-04T05:06:33.326Z,1.38
2023-03-04T05:11:34.719Z,1.92
2023-03-04T05:16:36.164Z,1.40
2023-03-04T05:21:37.582Z,1.10
2023-03-04T05:26:38.996Z,1.77
2023-03-04T05:31:40.391Z,1.20
2023-03-04T05:36:41.953Z,1.70
2023-03-04T05:41:43.439Z,1.50
2023-03-04T05:46:44.908Z,1.50
2023-03-04T05:51:46.412Z,1.00
2023-03-04T05:56:47.996Z,0.85
2023-03-04T06:01:49.464Z,1.00
2023-03-04T06:06:50.875Z,1.00
2023-03-04T06:11:52.279Z,1.10
2023-03-04T06:16:53.754Z,1.23
2023-03-04T06:21:55.326Z,1.20
2023-03-04T06:26:56.725Z,0.80
2023-03-04T06:31:58.225Z,1.00
2023-03-04T06:37:00.243Z,1.00
2023-03-04T06:42:01.668Z,0.88
2023-03-04T06:47:03.060Z,1.02
2023-03-04T06:52:04.522Z,1.38
2023-03-04T06:57:06.706Z,1.75
2023-03-04T07:02:10.938Z,1.70
2023-03-04T07:07:12.427Z,2.00
2023-03-04T07:12:13.858Z,1.65
2023-03-04T07:17:15.248Z,2.22
2023-03-04T07:22:16.699Z,1.48
2023-03-04T07:27:18.098Z,1.20
2023-03-04T07:32:19.759Z,1.10
2023-03-04T07:37:21.386Z,1.00
2023-03-04T07:42:22.913Z,1.23
2023-03-04T07:47:24.414Z,1.33
2023-03-04T07:52:25.886Z,1.05
2023-03-04T07:57:27.301Z,1.20
2023-03-04T08:02:28.815Z,1.35
2023-03-04T08:07:30.430Z,1.33
2023-03-04T08:12:31.930Z,1.20
2023-03-04T08:17:34.302Z,1.15
2023-03-04T08:22:35.814Z,1.10
2023-03-04T08:27:37.514Z,1.00
2023-03-04T08:32:39.378Z,1.88
2023-03-04T08:37:40.848Z,1.00
2023-03-04T08:42:42.290Z,1.35
2023-03-04T08:47:43.760Z,1.50
2023-03-04T08:52:45.172Z,1.10
2023-03-04T08:57:46.579Z,1.35
2023-03-04T09:02:48.017Z,1.10
2023-03-04T09:07:49.568Z,1.60
2023-03-04T09:12:51.619Z,1.55
2023-03-04T09:17:53.519Z,1.65
2023-03-04T09:22:55.100Z,1.20
2023-03-04T09:27:56.616Z,1.42
2023-03-04T09:32:58.073Z,1.67
2023-03-04T09:37:59.568Z,1.30
2023-03-04T09:43:03.695Z,1.63
2023-03-04T09:48:05.978Z,1.25
2023-03-04T09:53:34.413Z,1.27
2023-03-04T09:58:41.624Z,1.42
2023-03-04T10:03:45.741Z,1.50
2023-03-04T10:08:47.191Z,1.75
2023-03-04T10:13:54.689Z,1.50
2023-03-04T10:18:58.332Z,1.63
2023-03-04T10:24:02.465Z,1.30
2023-03-04T10:29:07.129Z,1.92
2023-03-04T10:34:10.749Z,1.63
2023-03-04T10:39:13.177Z,1.52
2023-03-04T10:44:18.005Z,1.83
2023-03-04T10:49:19.717Z,1.73
2023-03-04T10:54:32.222Z,2.20
2023-03-04T10:59:36.518Z,2.75
2023-03-04T11:04:37.903Z,2.42
2023-03-04T11:09:40.288Z,3.50
2023-03-04T11:14:46.101Z,3.05
2023-03-04T11:19:51.466Z,3.00
2023-03-04T11:24:56.007Z,2.47
2023-03-04T11:30:20.484Z,2.72
2023-03-04T11:35:25.266Z,2.90
2023-03-04T11:40:46.985Z,2.28
2023-03-04T11:45:54.525Z,2.42
2023-03-04T11:51:03.638Z,2.65
2023-03-04T11:56:05.475Z,2.10
2023-03-04T12:01:12.918Z,2.15
2023-03-04T12:06:17.238Z,2.42
2023-03-04T12:11:40.535Z,2.08
2023-03-04T12:16:48.138Z,2.13
2023-03-04T12:22:01.948Z,1.58
2023-03-04T12:27:09.556Z,1.50
2023-03-04T12:32:13.760Z,1.50
2023-03-04T12:37:38.557Z,1.92
2023-03-04T12:42:39.985Z,1.10
2023-03-04T12:47:41.379Z,1.35
2023-03-04T12:52:42.791Z,1.42
2023-03-04T12:57:44.966Z,0.90
2023-03-04T13:02:46.546Z,1.10
2023-03-04T13:08:06.509Z,1.70
2023-03-04T13:13:34.038Z,1.35
2023-03-04T13:18:36.724Z,1.33
2023-03-04T13:23:38.259Z,1.38
2023-03-04T13:28:39.680Z,1.60
2023-03-04T13:33:49.121Z,1.60
2023-03-04T13:39:00.580Z,1.20
2023-03-04T13:44:03.138Z,1.30
2023-03-04T13:49:07.533Z,1.42
2023-03-04T13:54:28.743Z,1.40
2023-03-04T13:59:35.752Z,1.83
2023-03-04T14:04:38.457Z,1.30
2023-03-04T14:09:40.110Z,1.13
2023-03-04T14:14:41.558Z,2.15
2023-03-04T14:19:46.928Z,2.45
2023-03-04T14:25:07.261Z,2.33
2023-03-04T14:30:22.084Z,2.28
2023-03-04T14:35:28.656Z,1.85
2023-03-04T14:40:31.780Z,1.80
2023-03-04T14:45:33.270Z,2.25
2023-03-04T14:50:37.383Z,2.17
2023-03-04T14:55:39.251Z,1.95
2023-03-04T15:00:41.138Z,2.85
2023-03-04T15:05:42.655Z,2.15
2023-03-04T15:10:53.645Z,2.50
2023-03-04T15:16:00.793Z,2.53
2023-03-04T15:21:25.153Z,2.13
2023-03-04T15:26:27.204Z,2.33
2023-03-04T15:31:29.325Z,2.78
2023-03-04T15:36:30.751Z,2.35
2023-03-04T15:41:32.379Z,2.85
2023-03-04T15:46:33.903Z,4.00
2023-03-04T15:51:35.846Z,3.05
2023-03-04T15:56:37.416Z,2.80
2023-03-04T16:01:38.861Z,2.03
2023-03-04T16:06:41.014Z,2.65
2023-03-04T16:11:45.523Z,2.40
2023-03-04T16:16:48.029Z,1.85
2023-03-04T16:21:49.524Z,2.90
2023-03-04T16:26:52.776Z,3.28
2023-03-04T16:31:54.461Z,2.05
2023-03-04T16:36:55.901Z,1.95
2023-03-04T16:41:57.437Z,2.10
2023-03-04T16:46:58.804Z,2.28
2023-03-04T16:52:00.264Z,2.90
2023-03-04T16:57:01.880Z,2.15
2023-03-04T17:02:03.376Z,2.72
2023-03-04T17:07:04.790Z,2.05
2023-03-04T17:12:06.909Z,1.77
2023-03-04T17:17:08.406Z,2.50
2023-03-04T17:22:09.804Z,3.30
2023-03-04T17:27:11.326Z,4.10
2023-03-04T17:32:12.797Z,2.35
2023-03-04T17:37:14.222Z,2.33
2023-03-04T17:42:15.718Z,1.77
2023-03-04T17:47:17.367Z,1.77
2023-03-04T17:52:19.273Z,2.35
2023-03-04T17:57:20.749Z,1.70
2023-03-04T18:02:22.322Z,1.67
2023-03-04T18:07:23.767Z,1.92
2023-03-04T18:12:25.298Z,2.10
2023-03-04T18:17:26.795Z,2.13
2023-03-04T18:22:28.244Z,2.10
2023-03-04T18:27:29.684Z,2.05
2023-03-04T18:32:41.874Z,2.38
2023-03-04T18:37:52.571Z,1.98
2023-03-04T18:42:54.968Z,1.73
2023-03-04T18:47:57.177Z,3.10
2023-03-04T18:52:58.631Z,2.10
2023-03-04T18:58:01.585Z,2.55
2023-03-04T19:03:06.687Z,1.95
2023-03-04T19:08:08.203Z,2.03
2023-03-04T19:13:09.587Z,2.47
2023-03-04T19:18:11.189Z,4.07
2023-03-04T19:23:13.386Z,4.00
2023-03-04T19:28:14.782Z,3.58
2023-03-04T19:33:16.246Z,3.67
2023-03-04T19:38:18.093Z,4.60
2023-03-04T19:43:19.797Z,2.60
2023-03-04T19:48:23.107Z,2.10
2023-03-04T19:53:24.516Z,3.00
2023-03-04T19:58:26.990Z,3.60
2023-03-04T20:03:28.603Z,3.80
2023-03-04T20:08:30.113Z,3.63
2023-03-04T20:13:31.628Z,4.28
2023-03-04T20:18:33.083Z,4.05
2023-03-04T20:23:35.174Z,2.35
2023-03-04T20:28:36.720Z,2.60
2023-03-04T20:33:38.243Z,3.08
2023-03-04T20:38:39.686Z,3.00
2023-03-04T20:43:41.217Z,2.92
2023-03-04T20:48:42.945Z,2.55
2023-03-04T20:53:45.059Z,2.92
2023-03-04T20:58:46.622Z,3.85
2023-03-04T21:03:49.236Z,3.60
2023-03-04T21:08:50.904Z,3.03
2023-03-04T21:13:58.927Z,3.17
2023-03-04T21:19:00.777Z,3.15
2023-03-04T21:24:02.278Z,2.67
2023-03-04T21:29:03.735Z,2.70
2023-03-04T21:34:05.481Z,2.55
2023-03-04T21:39:07.308Z,2.33
2023-03-04T21:44:14.462Z,1.80
2023-03-04T21:49:25.003Z,1.42
2023-03-04T21:54:26.610Z,2.60
2023-03-04T21:59:28.058Z,1.80
2023-03-04T22:04:29.679Z,2.42
2023-03-04T22:09:31.957Z,2.28
2023-03-04T22:14:33.454Z,1.80
2023-03-04T22:19:34.924Z,1.42
2023-03-04T22:24:36.392Z,1.38
2023-03-04T22:29:37.816Z,1.10
2023-03-04T22:34:39.509Z,1.55
2023-03-04T22:39:40.997Z,1.92
2023-03-04T22:44:42.452Z,1.63
2023-03-04T22:49:43.878Z,1.15
2023-03-04T22:54:45.335Z,2.00
2023-03-04T22:59:46.761Z,1.90
2023-03-04T23:04:48.227Z,1.85
2023-03-04T23:09:49.893Z,2.00
2023-03-04T23:14:51.495Z,2.00
2023-03-04T23:19:52.969Z,2.22
2023-03-04T23:24:54.459Z,2.30
2023-03-04T23:29:55.831Z,2.40
2023-03-04T23:35:15.788Z,1.80
2023-03-04T23:40:18.079Z,2.03
2023-03-04T23:45:19.657Z,1.73
2023-03-04T23:50:21.079Z,1.65
2023-03-04T23:55:22.534Z,1.55
